Pride — ZDFD7 — position and weather

sailwx.info

Track history (hours):
 
Tides and Currents Weather Stations Pressure Air Temp Water Temp Dewpoint Dewpoint Depression Visibility Wind Speed Wind Dir Waves Ship Positions

Pride

Last reported at 2017-Aug-16 13:07 UTC. Time now 2017-Aug-16 21:50 UTC.
Position N 48°39' W 002°01'.

Length 88 m; draft 3.4 m.

Type: Cargo ship. MMSI: 236166000.

Date/timePositionNaut miles runAvg speedWind from/ knotsBaromVisibWave heightAir tempDewpointWater temp
2017-Aug-16 13:07N 48°39' W 002°01'0 0.0
2017-Aug-16 12:58N 48°39' W 002°01'0 0.0
2017-Aug-16 12:04N 48°39' W 002°01'0 0.0
2017-Aug-16 11:58N 48°39' W 002°01'0 0.0
2017-Aug-16 11:22N 48°39' W 002°01'0 0.0
2017-Aug-16 10:58N 48°39' W 002°01'0 0.0
2017-Aug-16 10:28N 48°39' W 002°01'0 0.0
2017-Aug-15 19:34N 48°39' W 002°01'0 0.0
2017-Aug-15 19:25N 48°39' W 002°01'0 0.0
2017-Aug-14 12:27N 48°39' W 002°01'0 0.0
2017-Aug-14 11:54N 48°39' W 002°01'0 0.0
2017-Aug-14 11:16N 48°39' W 002°01'0 0.0
2017-Aug-14 10:22N 48°39' W 002°01'0 0.0
2017-Aug-14 09:58N 48°39' W 002°01'0 0.0
2017-Aug-14 09:28N 48°39' W 002°01'0 0.0
2017-Aug-14 08:55N 48°39' W 002°01'0 0.0
2017-Aug-14 08:28N 48°39' W 002°01'0 0.0
2017-Aug-14 07:58N 48°39' W 002°01'0 0.0
2017-Aug-14 07:25N 48°39' W 002°01'0 0.0
2017-Aug-14 06:58N 48°39' W 002°01'0 0.0
2017-Aug-14 06:28N 48°39' W 002°01'0 0.0
2017-Aug-14 05:58N 48°39' W 002°01'0 0.0
2017-Aug-14 05:28N 48°39' W 002°01'0 0.0
2017-Aug-14 04:58N 48°39' W 002°01'0 0.0
2017-Aug-14 04:25N 48°39' W 002°01'0 0.0
2017-Aug-14 03:52N 48°39' W 002°01'0 0.0
2017-Aug-14 03:28N 48°39' W 002°01'0 0.0
2017-Aug-14 02:52N 48°39' W 002°01'0 0.0
2017-Aug-14 01:25N 48°39' W 002°01'0 0.0
2017-Aug-13 23:55N 48°39' W 002°01'0 0.0
2017-Aug-13 23:13N 48°39' W 002°01'0 0.0
2017-Aug-13 21:49N 48°39' W 002°01'0 0.0
2017-Aug-13 21:19N 48°39' W 002°01'0 0.0
2017-Aug-13 20:58N 48°39' W 002°01'67 1.4
2017-Aug-11 19:37N 49°46' W 001°57'1 6.4
2017-Aug-11 19:30N 49°47' W 001°56'4 7.7
2017-Aug-11 19:00N 49°49' W 001°51'5 9.1
2017-Aug-11 18:30N 49°51' W 001°45'510.6
2017-Aug-11 18:00N 49°53' W 001°38'611.6
2017-Aug-11 17:30N 49°56' W 001°30'611.8
2017-Aug-11 17:00N 49°59' W 001°22'5010.5
2017-Aug-11 12:13N 50°24' W 000°14'2 8.0
2017-Aug-11 12:01N 50°24' W 000°11'4 7.7
2017-Aug-11 11:30N 50°26' W 000°06'4 7.3
2017-Aug-11 11:00N 50°28' W 000°01'4 7.4
2017-Aug-11 10:28N 50°29' E 000°05'4 7.7
2017-Aug-11 10:00N 50°31' E 000°10'13 8.8
2017-Aug-11 08:34N 50°36' E 000°28'110.2
2017-Aug-11 08:30N 50°36' E 000°29'510.4
2017-Aug-11 08:00N 50°39' E 000°36'611.0
2017-Aug-11 07:29N 50°42' E 000°44'611.2
2017-Aug-11 06:58N 50°46' E 000°51'1910.7
2017-Aug-11 05:14N 50°57' E 001°14'2 9.7
2017-Aug-11 05:00N 50°59' E 001°16'4 9.1
2017-Aug-11 04:31N 51°01' E 001°22'4 8.4
2017-Aug-11 04:00N 51°04' E 001°27'4 7.5
2017-Aug-11 03:31N 51°07' E 001°32'3 6.4
2017-Aug-11 03:01N 51°09' E 001°36'3 6.3
2017-Aug-11 02:30N 51°11' E 001°39'3 6.7
2017-Aug-11 02:00N 51°13' E 001°44'4 7.2
2017-Aug-11 01:30N 51°16' E 001°47'4 8.2
2017-Aug-11 01:00N 51°20' E 001°49'5 9.2
2017-Aug-11 00:30N 51°24' E 001°53'510.0
2017-Aug-11 00:00N 51°28' E 001°57'611.2
2017-Aug-10 23:30N 51°32' E 002°03'811.6
2017-Aug-10 22:47N 51°38' E 002°12'311.8
2017-Aug-10 22:30N 51°40' E 002°16'62 9.7
2017-Aug-10 16:07N 52°04' E 003°49'0 0.0
2017-Aug-10 16:00N 52°04' E 003°49'2 4.9
2017-Aug-10 15:30N 52°03' E 003°53'4 7.3
2017-Aug-10 15:00N 52°01' E 003°58'4 8.7
2017-Aug-10 14:30N 51°59' E 004°05'510.5
2017-Aug-10 14:00N 51°56' E 004°12'510.6
2017-Aug-10 13:31N 51°54' E 004°19'5 9.0
2017-Aug-10 13:00N 51°54' E 004°26'0 1.0
2017-Aug-10 12:30N 51°53' E 004°26'0 0.0
2017-Aug-10 12:00N 51°53' E 004°26'0 0.0
2017-Aug-10 11:29N 51°53' E 004°26'0 0.0
2017-Aug-10 11:00N 51°53' E 004°26'0 0.0
2017-Aug-10 10:30N 51°53' E 004°26'0 0.0
2017-Aug-10 10:00N 51°53' E 004°26'0 0.0
2017-Aug-10 09:30N 51°53' E 004°26'0 0.0
2017-Aug-10 09:00N 51°53' E 004°26'0 0.0
2017-Aug-10 08:30N 51°53' E 004°26'0 0.0
2017-Aug-10 08:00N 51°53' E 004°26'0 0.0
2017-Aug-10 07:30N 51°53' E 004°26'0 0.0
2017-Aug-10 07:00N 51°53' E 004°26'0 0.0
2017-Aug-10 06:30N 51°53' E 004°26'0 0.0
2017-Aug-10 06:00N 51°53' E 004°26'0 0.0
2017-Aug-10 05:30N 51°53' E 004°26'0 0.0
2017-Aug-10 05:00N 51°53' E 004°26'0 0.0
2017-Aug-10 04:30N 51°53' E 004°26'0 0.0
2017-Aug-10 04:00N 51°53' E 004°26'0 0.0
2017-Aug-10 03:30N 51°53' E 004°26'0 0.0
2017-Aug-10 03:00N 51°53' E 004°26'0 0.0
2017-Aug-10 02:30N 51°53' E 004°26'0 0.0
2017-Aug-10 02:00N 51°53' E 004°26'0 0.0
2017-Aug-10 01:31N 51°53' E 004°26'0 0.0
2017-Aug-10 01:00N 51°53' E 004°26'0 0.0
2017-Aug-10 00:30N 51°53' E 004°26'0 0.0
2017-Aug-10 00:00N 51°53' E 004°26'0 0.0
2017-Aug-09 23:30N 51°53' E 004°26'0 0.0
2017-Aug-09 23:00N 51°53' E 004°26'0 0.0
2017-Aug-09 22:30N 51°53' E 004°26'0 0.0
2017-Aug-09 22:00N 51°53' E 004°26'0 0.0
2017-Aug-09 21:30N 51°53' E 004°26'0 0.1
2017-Aug-09 21:00N 51°53' E 004°26'0 0.3
2017-Aug-09 20:31N 51°53' E 004°27'3 6.4
2017-Aug-09 20:00N 51°54' E 004°21'4 7.3
2017-Aug-09 19:30N 51°54' E 004°16'4 7.3
2017-Aug-09 19:00N 51°57' E 004°11'4 8.2
2017-Aug-09 18:30N 51°59' E 004°05'5 9.2
2017-Aug-09 18:00N 51°60' E 003°58'510.6
2017-Aug-09 17:30N 51°60' E 003°50'15 4.9
2017-Aug-09 14:30N 51°55' E 003°27'0 0.0
2017-Aug-09 14:00N 51°55' E 003°27'46 9.6
2017-Aug-09 09:15N 51°34' E 002°21'4 8.5
2017-Aug-09 08:48N 51°31' E 002°18'3 8.3
2017-Aug-09 08:26N 51°28' E 002°15'4 8.7
2017-Aug-09 07:57N 51°24' E 002°12'4 8.8
2017-Aug-09 07:30N 51°21' E 002°09'5 9.3
2017-Aug-09 07:00N 51°17' E 002°06'5 9.1
2017-Aug-09 06:30N 51°13' E 002°02'5 9.6
2017-Aug-09 06:00N 51°10' E 001°55'5 9.7
2017-Aug-09 05:30N 51°08' E 001°49'510.0
2017-Aug-09 05:00N 51°04' E 001°44'510.3
2017-Aug-09 04:30N 51°00' E 001°38'510.9
2017-Aug-09 04:00N 50°56' E 001°32'8811.6
2017-Aug-08 20:26N 49°48' E 000°04'511.8
2017-Aug-08 20:00N 49°45' W 000°01'510.6
2017-Aug-08 19:30N 49°40' W 000°05'510.0
2017-Aug-08 19:00N 49°35' W 000°07'5 9.6
2017-Aug-08 18:30N 49°30' W 000°09'1 2.6
2017-Aug-08 17:59N 49°29' W 000°09'0 0.0
2017-Aug-08 17:29N 49°29' W 000°09'0 0.0
2017-Aug-08 16:54N 49°29' W 000°09'0 0.0
2017-Aug-08 15:28N 49°29' W 000°09'0 0.0
2017-Aug-08 14:58N 49°29' W 000°09'0 0.0
2017-Aug-08 14:29N 49°29' W 000°09'0 0.0
2017-Aug-08 13:35N 49°29' W 000°09'0 0.0
2017-Aug-08 13:22N 49°29' W 000°09'0 0.0
2017-Aug-08 12:49N 49°29' W 000°09'0 0.0
2017-Aug-08 12:26N 49°29' W 000°09'0 0.1
2017-Aug-08 11:57N 49°29' W 000°09'0 0.0
2017-Aug-08 11:10N 49°29' W 000°09'0 0.1
2017-Aug-08 10:50N 49°29' W 000°09'0 0.0
2017-Aug-08 10:26N 49°29' W 000°09'0 0.0
2017-Aug-08 09:58N 49°29' W 000°09'0 0.0
2017-Aug-08 09:18N 49°29' W 000°09'0 0.0
2017-Aug-08 08:54N 49°29' W 000°09'0 0.0
2017-Aug-08 08:13N 49°29' W 000°09'0 0.0
2017-Aug-08 07:30N 49°29' W 000°09'0 0.0
2017-Aug-08 06:56N 49°29' W 000°09'0 0.1
2017-Aug-08 06:27N 49°29' W 000°09'0 0.0
2017-Aug-08 05:57N 49°29' W 000°09'0 0.0
2017-Aug-08 05:27N 49°29' W 000°09'0 0.1
2017-Aug-08 04:47N 49°29' W 000°09'0 0.0
2017-Aug-08 04:30N 49°29' W 000°10'0 0.0
2017-Aug-08 03:59N 49°29' W 000°10'0 0.0
2017-Aug-08 03:30N 49°29' W 000°10'0 0.0
2017-Aug-08 02:57N 49°29' W 000°10'0 0.0
2017-Aug-08 02:28N 49°29' W 000°10'0 0.0
2017-Aug-08 01:59N 49°29' W 000°10'0 0.0
2017-Aug-08 01:21N 49°29' W 000°10'0 0.0
2017-Aug-08 00:55N 49°29' W 000°10'0 0.0
2017-Aug-08 00:30N 49°29' W 000°10'0 0.0
2017-Aug-08 00:00N 49°29' W 000°10'0 0.0
2017-Aug-07 23:30N 49°29' W 000°09'0 0.0
2017-Aug-07 22:58N 49°29' W 000°09'0 0.1
2017-Aug-07 22:18N 49°29' W 000°09'0 0.0
2017-Aug-07 21:57N 49°29' W 000°09'0 0.0
2017-Aug-07 21:27N 49°29' W 000°09'0 0.2
2017-Aug-07 21:00N 49°29' W 000°09'3 6.1
2017-Aug-07 20:30N 49°29' W 000°05'5 9.8
2017-Aug-07 20:00N 49°27' E 000°02'5 9.3
2017-Aug-07 19:30N 49°26' E 000°09'4 7.8
2017-Aug-07 19:00N 49°26' E 000°15'5 9.4
2017-Aug-07 18:30N 49°26' E 000°22'611.4
2017-Aug-07 17:57N 49°29' E 000°31'  
Track history (hours):
 
Tides and Currents Weather Stations Pressure Air Temp Water Temp Dewpoint Dewpoint Depression Visibility Wind Speed Wind Dir Waves Ship Positions

Pride

Last reported at 2017-Aug-16 13:07 UTC. Time now 2017-Aug-16 21:50 UTC.
Position N 48°39' W 002°01'.

Length 88 m; draft 3.4 m.

Type: Cargo ship. MMSI: 236166000.

Date/timePositionNaut miles runAvg speedWind from/ knotsBaromVisibWave heightAir tempDewpointWater temp
2017-Aug-16 13:07N 48°39' W 002°01'0 0.0
2017-Aug-16 12:58N 48°39' W 002°01'0 0.0
2017-Aug-16 12:04N 48°39' W 002°01'0 0.0
2017-Aug-16 11:58N 48°39' W 002°01'0 0.0
2017-Aug-16 11:22N 48°39' W 002°01'0 0.0
2017-Aug-16 10:58N 48°39' W 002°01'0 0.0
2017-Aug-16 10:28N 48°39' W 002°01'0 0.0
2017-Aug-15 19:34N 48°39' W 002°01'0 0.0
2017-Aug-15 19:25N 48°39' W 002°01'0 0.0
2017-Aug-14 12:27N 48°39' W 002°01'0 0.0
2017-Aug-14 11:54N 48°39' W 002°01'0 0.0
2017-Aug-14 11:16N 48°39' W 002°01'0 0.0
2017-Aug-14 10:22N 48°39' W 002°01'0 0.0
2017-Aug-14 09:58N 48°39' W 002°01'0 0.0
2017-Aug-14 09:28N 48°39' W 002°01'0 0.0
2017-Aug-14 08:55N 48°39' W 002°01'0 0.0
2017-Aug-14 08:28N 48°39' W 002°01'0 0.0
2017-Aug-14 07:58N 48°39' W 002°01'0 0.0
2017-Aug-14 07:25N 48°39' W 002°01'0 0.0
2017-Aug-14 06:58N 48°39' W 002°01'0 0.0
2017-Aug-14 06:28N 48°39' W 002°01'0 0.0
2017-Aug-14 05:58N 48°39' W 002°01'0 0.0
2017-Aug-14 05:28N 48°39' W 002°01'0 0.0
2017-Aug-14 04:58N 48°39' W 002°01'0 0.0
2017-Aug-14 04:25N 48°39' W 002°01'0 0.0
2017-Aug-14 03:52N 48°39' W 002°01'0 0.0
2017-Aug-14 03:28N 48°39' W 002°01'0 0.0
2017-Aug-14 02:52N 48°39' W 002°01'0 0.0
2017-Aug-14 01:25N 48°39' W 002°01'0 0.0
2017-Aug-13 23:55N 48°39' W 002°01'0 0.0
2017-Aug-13 23:13N 48°39' W 002°01'0 0.0
2017-Aug-13 21:49N 48°39' W 002°01'0 0.0
2017-Aug-13 21:19N 48°39' W 002°01'0 0.0
2017-Aug-13 20:58N 48°39' W 002°01'67 1.4
2017-Aug-11 19:37N 49°46' W 001°57'1 6.4
2017-Aug-11 19:30N 49°47' W 001°56'4 7.7
2017-Aug-11 19:00N 49°49' W 001°51'5 9.1
2017-Aug-11 18:30N 49°51' W 001°45'510.6
2017-Aug-11 18:00N 49°53' W 001°38'611.6
2017-Aug-11 17:30N 49°56' W 001°30'611.8
2017-Aug-11 17:00N 49°59' W 001°22'5010.5
2017-Aug-11 12:13N 50°24' W 000°14'2 8.0
2017-Aug-11 12:01N 50°24' W 000°11'4 7.7
2017-Aug-11 11:30N 50°26' W 000°06'4 7.3
2017-Aug-11 11:00N 50°28' W 000°01'4 7.4
2017-Aug-11 10:28N 50°29' E 000°05'4 7.7
2017-Aug-11 10:00N 50°31' E 000°10'13 8.8
2017-Aug-11 08:34N 50°36' E 000°28'110.2
2017-Aug-11 08:30N 50°36' E 000°29'510.4
2017-Aug-11 08:00N 50°39' E 000°36'611.0
2017-Aug-11 07:29N 50°42' E 000°44'611.2
2017-Aug-11 06:58N 50°46' E 000°51'1910.7
2017-Aug-11 05:14N 50°57' E 001°14'2 9.7
2017-Aug-11 05:00N 50°59' E 001°16'4 9.1
2017-Aug-11 04:31N 51°01' E 001°22'4 8.4
2017-Aug-11 04:00N 51°04' E 001°27'4 7.5
2017-Aug-11 03:31N 51°07' E 001°32'3 6.4
2017-Aug-11 03:01N 51°09' E 001°36'3 6.3
2017-Aug-11 02:30N 51°11' E 001°39'3 6.7
2017-Aug-11 02:00N 51°13' E 001°44'4 7.2
2017-Aug-11 01:30N 51°16' E 001°47'4 8.2
2017-Aug-11 01:00N 51°20' E 001°49'5 9.2
2017-Aug-11 00:30N 51°24' E 001°53'510.0
2017-Aug-11 00:00N 51°28' E 001°57'611.2
2017-Aug-10 23:30N 51°32' E 002°03'811.6
2017-Aug-10 22:47N 51°38' E 002°12'311.8
2017-Aug-10 22:30N 51°40' E 002°16'62 9.7
2017-Aug-10 16:07N 52°04' E 003°49'0 0.0
2017-Aug-10 16:00N 52°04' E 003°49'2 4.9
2017-Aug-10 15:30N 52°03' E 003°53'4 7.3
2017-Aug-10 15:00N 52°01' E 003°58'4 8.7
2017-Aug-10 14:30N 51°59' E 004°05'510.5
2017-Aug-10 14:00N 51°56' E 004°12'510.6
2017-Aug-10 13:31N 51°54' E 004°19'5 9.0
2017-Aug-10 13:00N 51°54' E 004°26'0 1.0
2017-Aug-10 12:30N 51°53' E 004°26'0 0.0
2017-Aug-10 12:00N 51°53' E 004°26'0 0.0
2017-Aug-10 11:29N 51°53' E 004°26'0 0.0
2017-Aug-10 11:00N 51°53' E 004°26'0 0.0
2017-Aug-10 10:30N 51°53' E 004°26'0 0.0
2017-Aug-10 10:00N 51°53' E 004°26'0 0.0
2017-Aug-10 09:30N 51°53' E 004°26'0 0.0
2017-Aug-10 09:00N 51°53' E 004°26'0 0.0
2017-Aug-10 08:30N 51°53' E 004°26'0 0.0
2017-Aug-10 08:00N 51°53' E 004°26'0 0.0
2017-Aug-10 07:30N 51°53' E 004°26'0 0.0
2017-Aug-10 07:00N 51°53' E 004°26'0 0.0
2017-Aug-10 06:30N 51°53' E 004°26'0 0.0
2017-Aug-10 06:00N 51°53' E 004°26'0 0.0
2017-Aug-10 05:30N 51°53' E 004°26'0 0.0
2017-Aug-10 05:00N 51°53' E 004°26'0 0.0
2017-Aug-10 04:30N 51°53' E 004°26'0 0.0
2017-Aug-10 04:00N 51°53' E 004°26'0 0.0
2017-Aug-10 03:30N 51°53' E 004°26'0 0.0
2017-Aug-10 03:00N 51°53' E 004°26'0 0.0
2017-Aug-10 02:30N 51°53' E 004°26'0 0.0
2017-Aug-10 02:00N 51°53' E 004°26'0 0.0
2017-Aug-10 01:31N 51°53' E 004°26'0 0.0
2017-Aug-10 01:00N 51°53' E 004°26'0 0.0
2017-Aug-10 00:30N 51°53' E 004°26'0 0.0
2017-Aug-10 00:00N 51°53' E 004°26'0 0.0
2017-Aug-09 23:30N 51°53' E 004°26'0 0.0
2017-Aug-09 23:00N 51°53' E 004°26'0 0.0
2017-Aug-09 22:30N 51°53' E 004°26'0 0.0
2017-Aug-09 22:00N 51°53' E 004°26'0 0.0
2017-Aug-09 21:30N 51°53' E 004°26'0 0.1
2017-Aug-09 21:00N 51°53' E 004°26'0 0.3
2017-Aug-09 20:31N 51°53' E 004°27'3 6.4
2017-Aug-09 20:00N 51°54' E 004°21'4 7.3
2017-Aug-09 19:30N 51°54' E 004°16'4 7.3
2017-Aug-09 19:00N 51°57' E 004°11'4 8.2
2017-Aug-09 18:30N 51°59' E 004°05'5 9.2
2017-Aug-09 18:00N 51°60' E 003°58'510.6
2017-Aug-09 17:30N 51°60' E 003°50'15 4.9
2017-Aug-09 14:30N 51°55' E 003°27'0 0.0
2017-Aug-09 14:00N 51°55' E 003°27'46 9.6
2017-Aug-09 09:15N 51°34' E 002°21'4 8.5
2017-Aug-09 08:48N 51°31' E 002°18'3 8.3
2017-Aug-09 08:26N 51°28' E 002°15'4 8.7
2017-Aug-09 07:57N 51°24' E 002°12'4 8.8
2017-Aug-09 07:30N 51°21' E 002°09'5 9.3
2017-Aug-09 07:00N 51°17' E 002°06'5 9.1
2017-Aug-09 06:30N 51°13' E 002°02'5 9.6
2017-Aug-09 06:00N 51°10' E 001°55'5 9.7
2017-Aug-09 05:30N 51°08' E 001°49'510.0
2017-Aug-09 05:00N 51°04' E 001°44'510.3
2017-Aug-09 04:30N 51°00' E 001°38'510.9
2017-Aug-09 04:00N 50°56' E 001°32'8811.6
2017-Aug-08 20:26N 49°48' E 000°04'511.8
2017-Aug-08 20:00N 49°45' W 000°01'510.6
2017-Aug-08 19:30N 49°40' W 000°05'510.0
2017-Aug-08 19:00N 49°35' W 000°07'5 9.6
2017-Aug-08 18:30N 49°30' W 000°09'1 2.6
2017-Aug-08 17:59N 49°29' W 000°09'0 0.0
2017-Aug-08 17:29N 49°29' W 000°09'0 0.0
2017-Aug-08 16:54N 49°29' W 000°09'0 0.0
2017-Aug-08 15:28N 49°29' W 000°09'0 0.0
2017-Aug-08 14:58N 49°29' W 000°09'0 0.0
2017-Aug-08 14:29N 49°29' W 000°09'0 0.0
2017-Aug-08 13:35N 49°29' W 000°09'0 0.0
2017-Aug-08 13:22N 49°29' W 000°09'0 0.0
2017-Aug-08 12:49N 49°29' W 000°09'0 0.0
2017-Aug-08 12:26N 49°29' W 000°09'0 0.1
2017-Aug-08 11:57N 49°29' W 000°09'0 0.0
2017-Aug-08 11:10N 49°29' W 000°09'0 0.1
2017-Aug-08 10:50N 49°29' W 000°09'0 0.0
2017-Aug-08 10:26N 49°29' W 000°09'0 0.0
2017-Aug-08 09:58N 49°29' W 000°09'0 0.0
2017-Aug-08 09:18N 49°29' W 000°09'0 0.0
2017-Aug-08 08:54N 49°29' W 000°09'0 0.0
2017-Aug-08 08:13N 49°29' W 000°09'0 0.0
2017-Aug-08 07:30N 49°29' W 000°09'0 0.0
2017-Aug-08 06:56N 49°29' W 000°09'0 0.1
2017-Aug-08 06:27N 49°29' W 000°09'0 0.0
2017-Aug-08 05:57N 49°29' W 000°09'0 0.0
2017-Aug-08 05:27N 49°29' W 000°09'0 0.1
2017-Aug-08 04:47N 49°29' W 000°09'0 0.0
2017-Aug-08 04:30N 49°29' W 000°10'0 0.0
2017-Aug-08 03:59N 49°29' W 000°10'0 0.0
2017-Aug-08 03:30N 49°29' W 000°10'0 0.0
2017-Aug-08 02:57N 49°29' W 000°10'0 0.0
2017-Aug-08 02:28N 49°29' W 000°10'0 0.0
2017-Aug-08 01:59N 49°29' W 000°10'0 0.0
2017-Aug-08 01:21N 49°29' W 000°10'0 0.0
2017-Aug-08 00:55N 49°29' W 000°10'0 0.0
2017-Aug-08 00:30N 49°29' W 000°10'0 0.0
2017-Aug-08 00:00N 49°29' W 000°10'0 0.0
2017-Aug-07 23:30N 49°29' W 000°09'0 0.0
2017-Aug-07 22:58N 49°29' W 000°09'0 0.1
2017-Aug-07 22:18N 49°29' W 000°09'0 0.0
2017-Aug-07 21:57N 49°29' W 000°09'0 0.0
2017-Aug-07 21:27N 49°29' W 000°09'0 0.2
2017-Aug-07 21:00N 49°29' W 000°09'3 6.1
2017-Aug-07 20:30N 49°29' W 000°05'5 9.8
2017-Aug-07 20:00N 49°27' E 000°02'5 9.3
2017-Aug-07 19:30N 49°26' E 000°09'4 7.8
2017-Aug-07 19:00N 49°26' E 000°15'5 9.4
2017-Aug-07 18:30N 49°26' E 000°22'611.4
2017-Aug-07 17:57N 49°29' E 000°31'  

Dump ship's entire track history